createdAt,value
2022-09-27T00:00:40.823Z,98422.09
2022-09-27T00:05:53.259Z,98417.66
2022-09-27T00:11:02.958Z,98406.75
2022-09-27T00:16:18.460Z,98400.28
2022-09-27T00:21:39.978Z,98391.78
2022-09-27T00:26:48.120Z,98386.31
2022-09-27T00:32:05.501Z,98382.25
2022-09-27T00:37:27.282Z,98374.16
2022-09-27T00:42:36.079Z,98357.38
2022-09-27T00:47:55.245Z,98344.03
2022-09-27T00:53:16.507Z,98330.84
2022-09-27T00:58:25.820Z,98329.00
2022-09-27T01:03:38.934Z,98325.78
2022-09-27T01:08:48.929Z,98315.84
2022-09-27T01:14:24.850Z,98309.78
2022-09-27T01:19:50.180Z,98296.22
2022-09-27T01:25:26.490Z,98291.59
2022-09-27T01:30:45.620Z,98295.81
2022-09-27T01:36:06.726Z,98293.78
2022-09-27T01:41:23.602Z,98281.44
2022-09-27T01:46:39.697Z,98277.84
2022-09-27T01:52:28.123Z,98273.56
2022-09-27T01:57:39.598Z,98264.69
2022-09-27T02:03:02.415Z,98260.84
2022-09-27T02:08:18.160Z,98243.47
2022-09-27T02:13:42.167Z,98242.44
2022-09-27T02:19:03.956Z,98238.81
2022-09-27T02:24:32.624Z,98229.13
2022-09-27T02:29:49.696Z,98224.66
2022-09-27T02:35:20.300Z,98224.47
2022-09-27T02:40:29.487Z,98223.47
2022-09-27T02:45:57.104Z,98215.41
2022-09-27T02:51:26.623Z,98206.88
2022-09-27T02:56:40.956Z,98208.72
2022-09-27T03:02:11.063Z,98208.09
2022-09-27T03:07:21.414Z,98207.69
2022-09-27T03:12:30.592Z,98203.63
2022-09-27T03:17:44.043Z,98201.03
2022-09-27T03:22:55.232Z,98197.75
2022-09-27T03:28:05.000Z,98194.94
2022-09-27T03:33:21.117Z,98202.81
2022-09-27T03:38:37.358Z,98207.47
2022-09-27T03:49:09.174Z,98194.28
2022-09-27T03:54:20.435Z,98196.69
2022-09-27T03:59:25.823Z,98199.91
2022-09-27T04:04:32.183Z,98178.88
2022-09-27T04:09:49.840Z,98179.69
2022-09-27T04:15:03.276Z,98182.69
2022-09-27T04:20:12.957Z,98175.19
2022-09-27T04:25:22.092Z,98170.53
2022-09-27T04:30:47.501Z,98170.09
2022-09-27T04:36:13.205Z,98175.13
2022-09-27T04:41:29.203Z,98170.31
2022-09-27T04:52:02.640Z,98172.88
2022-09-27T04:57:17.800Z,98167.63
2022-09-27T05:02:41.098Z,98164.53
2022-09-27T05:08:15.437Z,98160.91
2022-09-27T05:13:31.983Z,98166.78
2022-09-27T05:18:46.370Z,98168.16
2022-09-27T05:24:02.163Z,98170.00
2022-09-27T05:29:17.954Z,98170.19
2022-09-27T05:34:35.482Z,98174.03
2022-09-27T05:39:40.439Z,98159.31
2022-09-27T05:44:48.862Z,98176.03
2022-09-27T05:50:09.168Z,98167.81
2022-09-27T05:55:19.856Z,98163.38
2022-09-27T06:00:28.293Z,98165.00
2022-09-27T06:05:51.789Z,98166.22
2022-09-27T06:11:09.361Z,98158.59
2022-09-27T06:16:15.423Z,98159.78
2022-09-27T06:21:20.939Z,98164.03
2022-09-27T06:26:29.903Z,98158.78
2022-09-27T06:31:36.900Z,98166.69
2022-09-27T06:37:08.071Z,98178.59
2022-09-27T06:42:20.286Z,98190.50
2022-09-27T06:47:51.913Z,98186.13
2022-09-27T06:53:03.978Z,98181.69
2022-09-27T06:58:29.695Z,98178.06
2022-09-27T07:03:51.483Z,98180.88
2022-09-27T07:09:03.915Z,98179.66
2022-09-27T07:14:13.241Z,98180.13
2022-09-27T07:19:44.234Z,98182.75
2022-09-27T07:24:56.214Z,98185.22
2022-09-27T07:30:13.195Z,98193.91
2022-09-27T07:35:32.200Z,98209.69
2022-09-27T07:40:43.046Z,98205.44
2022-09-27T07:46:05.923Z,98206.06
2022-09-27T07:51:17.589Z,98203.84
2022-09-27T07:56:30.268Z,98207.13
2022-09-27T08:01:40.129Z,98206.94
2022-09-27T08:06:55.384Z,98203.47
2022-09-27T08:12:06.831Z,98208.16
2022-09-27T08:17:16.674Z,98210.16
2022-09-27T08:22:23.039Z,98214.19
2022-09-27T08:27:32.021Z,98219.84
2022-09-27T08:32:46.710Z,98222.69
2022-09-27T08:38:01.505Z,98218.66
2022-09-27T08:43:20.466Z,98232.00
2022-09-27T08:48:31.224Z,98234.25
2022-09-27T08:53:43.917Z,98235.88
2022-09-27T08:59:06.604Z,98255.84
2022-09-27T09:04:17.733Z,98254.84
2022-09-27T09:09:36.389Z,98261.09
2022-09-27T09:15:02.762Z,98261.31
2022-09-27T09:20:23.914Z,98272.44
2022-09-27T09:25:48.978Z,98275.88
2022-09-27T09:31:11.246Z,98284.56
2022-09-27T09:36:33.502Z,98293.47
2022-09-27T09:41:44.294Z,98293.47
2022-09-27T09:46:58.341Z,98314.22
2022-09-27T09:52:13.745Z,98331.34
2022-09-27T09:57:28.674Z,98330.16
2022-09-27T10:02:42.076Z,98324.09
2022-09-27T10:07:51.142Z,98326.34
2022-09-27T10:13:05.413Z,98327.25
2022-09-27T10:18:18.991Z,98342.41
2022-09-27T10:23:29.678Z,98333.97
2022-09-27T10:28:47.518Z,98338.44
2022-09-27T10:34:01.957Z,98348.94
2022-09-27T10:39:37.631Z,98341.84
2022-09-27T10:44:50.572Z,98352.19
2022-09-27T10:55:33.051Z,98349.16
2022-09-27T11:00:40.559Z,98354.81
2022-09-27T11:05:45.967Z,98366.94
2022-09-27T11:11:11.781Z,98358.88
2022-09-27T11:16:31.065Z,98356.66
2022-09-27T11:21:51.134Z,98363.53
2022-09-27T11:27:06.594Z,98361.28
2022-09-27T11:32:30.159Z,98363.72
2022-09-27T11:37:47.855Z,98376.72
2022-09-27T11:43:17.859Z,98373.03
2022-09-27T11:48:45.286Z,98378.53
2022-09-27T12:00:19.411Z,98380.13
2022-09-27T12:05:57.819Z,98381.34
2022-09-27T12:11:17.469Z,98382.75
2022-09-27T12:16:28.176Z,98377.69
2022-09-27T12:21:56.377Z,98372.03
2022-09-27T12:27:12.475Z,98371.84
2022-09-27T12:32:31.282Z,98373.66
2022-09-27T12:38:07.665Z,98374.69
2022-09-27T12:43:19.159Z,98376.13
2022-09-27T12:48:40.076Z,98379.94
2022-09-27T12:54:06.745Z,98374.88
2022-09-27T12:59:28.101Z,98367.13
2022-09-27T13:04:45.127Z,98364.47
2022-09-27T13:10:28.779Z,98354.69
2022-09-27T13:15:47.743Z,98356.28
2022-09-27T13:20:57.001Z,98357.66
2022-09-27T13:26:13.322Z,98368.84
2022-09-27T13:31:22.214Z,98366.78
2022-09-27T13:36:35.799Z,98373.66
2022-09-27T13:42:05.673Z,98385.63
2022-09-27T13:47:26.978Z,98381.50
2022-09-27T13:52:38.383Z,98391.41
2022-09-27T13:57:56.619Z,98380.28
2022-09-27T14:03:34.818Z,98388.78
2022-09-27T14:08:51.930Z,98405.63
2022-09-27T14:14:07.596Z,98418.88
2022-09-27T14:19:48.724Z,98425.03
2022-09-27T14:25:06.745Z,98426.09
2022-09-27T14:30:24.683Z,98434.25
2022-09-27T14:35:51.604Z,98438.72
2022-09-27T14:41:07.332Z,98436.44
2022-09-27T14:46:49.504Z,98439.50
2022-09-27T14:51:56.298Z,98439.91
2022-09-27T15:03:09.354Z,98446.59
2022-09-27T15:08:27.491Z,98442.91
2022-09-27T15:13:50.258Z,98447.16
2022-09-27T15:19:23.870Z,98453.63
2022-09-27T15:25:11.996Z,98455.41
2022-09-27T15:30:32.739Z,98450.13
2022-09-27T15:35:50.517Z,98463.44
2022-09-27T15:41:21.402Z,98455.75
2022-09-27T15:46:44.322Z,98462.41
2022-09-27T15:51:52.974Z,98463.56
2022-09-27T15:57:03.227Z,98473.84
2022-09-27T16:02:17.660Z,98481.13
2022-09-27T16:12:50.678Z,98483.06
2022-09-27T16:17:56.720Z,98492.69
2022-09-27T16:23:06.130Z,98490.84
2022-09-27T16:28:13.851Z,98501.69
2022-09-27T16:33:38.132Z,98515.84
2022-09-27T16:38:55.751Z,98517.03
2022-09-27T16:44:05.179Z,98512.72
2022-09-27T16:49:32.087Z,98520.75
2022-09-27T16:54:48.514Z,98518.53
2022-09-27T16:59:59.028Z,98523.28
2022-09-27T17:05:13.725Z,98529.66
2022-09-27T17:10:24.772Z,98534.91
2022-09-27T17:15:33.455Z,98544.84
2022-09-27T17:21:08.923Z,98542.22
2022-09-27T17:26:28.936Z,98548.22
2022-09-27T17:31:34.929Z,98546.94
2022-09-27T17:36:48.551Z,98550.88
2022-09-27T17:42:02.389Z,98546.56
2022-09-27T17:47:24.688Z,98546.84
2022-09-27T17:52:44.804Z,98544.53
2022-09-27T17:57:54.006Z,98554.75
2022-09-27T18:03:01.259Z,98567.06
2022-09-27T18:08:07.756Z,98569.41
2022-09-27T18:13:17.843Z,98565.72
2022-09-27T18:18:25.277Z,98568.34
2022-09-27T18:23:32.685Z,98563.09
2022-09-27T18:28:45.982Z,98569.66
2022-09-27T18:33:52.207Z,98563.44
2022-09-27T18:39:01.621Z,98576.38
2022-09-27T18:44:09.642Z,98574.66
2022-09-27T18:49:22.234Z,98575.50
2022-09-27T18:54:34.508Z,98575.56
2022-09-27T19:00:04.739Z,98579.38
2022-09-27T19:05:16.813Z,98571.66
2022-09-27T19:10:22.706Z,98573.91
2022-09-27T19:15:38.289Z,98569.03
2022-09-27T19:20:43.134Z,98572.41
2022-09-27T19:26:02.987Z,98581.03
2022-09-27T19:31:26.586Z,98585.63
2022-09-27T19:36:49.217Z,98581.72
2022-09-27T19:47:25.728Z,98583.47
2022-09-27T19:52:33.824Z,98578.41
2022-09-27T19:57:39.246Z,98569.91
2022-09-27T20:02:48.518Z,98571.28
2022-09-27T20:07:56.566Z,98569.19
2022-09-27T20:13:07.734Z,98570.53
2022-09-27T20:18:24.115Z,98582.41
2022-09-27T20:23:31.688Z,98575.69
2022-09-27T20:28:46.902Z,98569.00
2022-09-27T20:33:58.282Z,98577.22
2022-09-27T20:39:19.353Z,98565.38
2022-09-27T20:44:33.467Z,98568.38
2022-09-27T20:49:49.726Z,98568.84
2022-09-27T20:55:04.535Z,98561.56
2022-09-27T21:00:22.484Z,98560.50
2022-09-27T21:05:36.407Z,98560.22
2022-09-27T21:10:52.511Z,98565.16
2022-09-27T21:16:06.323Z,98564.28
2022-09-27T21:21:15.990Z,98565.16
2022-09-27T21:26:27.623Z,98569.44
2022-09-27T21:31:43.909Z,98564.94
2022-09-27T21:37:12.416Z,98569.69
2022-09-27T21:42:20.983Z,98575.97
2022-09-27T21:47:25.312Z,98576.28
2022-09-27T21:52:48.908Z,98579.47
2022-09-27T21:58:00.639Z,98571.50
2022-09-27T22:03:09.851Z,98571.22
2022-09-27T22:08:27.630Z,98568.75
2022-09-27T22:13:51.415Z,98565.84
2022-09-27T22:19:09.654Z,98562.94
2022-09-27T22:24:23.518Z,98570.47
2022-09-27T22:29:30.380Z,98562.00
2022-09-27T22:34:37.579Z,98561.53
2022-09-27T22:39:52.884Z,98562.88
2022-09-27T22:45:05.239Z,98560.25
2022-09-27T22:50:12.259Z,98562.81
2022-09-27T22:55:26.427Z,98564.75
2022-09-27T23:00:36.501Z,98560.50
2022-09-27T23:05:48.102Z,98554.31
2022-09-27T23:10:56.331Z,98555.03
2022-09-27T23:16:02.974Z,98548.81
2022-09-27T23:21:30.407Z,98550.94
2022-09-27T23:26:43.534Z,98558.66
2022-09-27T23:31:52.903Z,98557.25
2022-09-27T23:37:06.851Z,98564.78
2022-09-27T23:42:32.417Z,98555.81
2022-09-27T23:47:52.054Z,98556.47
2022-09-27T23:53:10.636Z,98550.59
2022-09-27T23:58:23.151Z,98547.84
